Terminal Aerodrome Forecast
Issued by NWS Wilmington, NC

Home | Current Version | Previous Version | Text Only | Print | Product List | Glossary On
Versions: 1 2 3 4 5 6 7 8 9 10 11 12 13
501
FTUS42 KILM 240028 CCA
TAFFLO
TAF COR
KFLO 240028Z 2400/2424 12005KT P6SM SKC
     FM240300 VRB03KT P6SM FEW250
     FM240900 00000KT 4SM BR OVC050
      TEMPO 2409/2413 1/2SM FG OVC020
     FM241400 11003KT P6SM SCT050
     FM242100 14006KT P6SM FEW250=

USA.gov is the U.S. government's official web portal to all federal, state and local government web resources and services.